sensor_id;sensor_type;location;lat;lon;timestamp;pressure;altitude;pressure_sealevel;temperature;humidity
9969;BME280;5025;48.890;9.278;2023-05-29T00:01:16;98754.84;;;17.69;47.04
9969;BME280;5025;48.890;9.278;2023-05-29T00:03:44;98762.19;;;17.69;46.88
9969;BME280;5025;48.890;9.278;2023-05-29T00:06:09;98760.28;;;17.69;46.88
9969;BME280;5025;48.890;9.278;2023-05-29T00:08:35;98759.72;;;17.67;46.89
9969;BME280;5025;48.890;9.278;2023-05-29T00:11:00;98763.56;;;17.66;46.82
9969;BME280;5025;48.890;9.278;2023-05-29T00:13:26;98767.13;;;17.67;46.83
9969;BME280;5025;48.890;9.278;2023-05-29T00:15:51;98768.19;;;17.66;46.81
9969;BME280;5025;48.890;9.278;2023-05-29T00:18:17;98772.31;;;17.63;47.06
9969;BME280;5025;48.890;9.278;2023-05-29T00:20:42;98757.84;;;17.58;47.02
9969;BME280;5025;48.890;9.278;2023-05-29T00:23:07;98760.31;;;17.44;47.40
9969;BME280;5025;48.890;9.278;2023-05-29T00:25:34;98760.88;;;17.35;47.63
9969;BME280;5025;48.890;9.278;2023-05-29T00:28:00;98765.78;;;17.33;47.94
9969;BME280;5025;48.890;9.278;2023-05-29T00:30:25;98760.06;;;17.30;48.13
9969;BME280;5025;48.890;9.278;2023-05-29T00:32:51;98757.06;;;17.26;48.09
9969;BME280;5025;48.890;9.278;2023-05-29T00:35:17;98753.22;;;17.22;48.17
9969;BME280;5025;48.890;9.278;2023-05-29T00:37:42;98760.31;;;17.18;48.20
9969;BME280;5025;48.890;9.278;2023-05-29T00:40:08;98757.59;;;17.13;48.38
9969;BME280;5025;48.890;9.278;2023-05-29T00:42:33;98752.69;;;17.05;49.00
9969;BME280;5025;48.890;9.278;2023-05-29T00:44:58;98753.50;;;17.00;49.28
9969;BME280;5025;48.890;9.278;2023-05-29T00:47:24;98753.78;;;16.93;49.73
9969;BME280;5025;48.890;9.278;2023-05-29T00:49:50;98752.13;;;16.87;50.07
9969;BME280;5025;48.890;9.278;2023-05-29T00:52:17;98749.66;;;16.85;50.45
9969;BME280;5025;48.890;9.278;2023-05-29T00:54:45;98751.28;;;16.76;50.76
9969;BME280;5025;48.890;9.278;2023-05-29T00:57:12;98744.44;;;16.69;51.13
9969;BME280;5025;48.890;9.278;2023-05-29T00:59:37;98747.72;;;16.65;51.16
9969;BME280;5025;48.890;9.278;2023-05-29T01:02:04;98747.13;;;16.63;51.33
9969;BME280;5025;48.890;9.278;2023-05-29T01:04:30;98751.50;;;16.59;51.63
9969;BME280;5025;48.890;9.278;2023-05-29T01:06:59;98741.16;;;16.56;51.76
9969;BME280;5025;48.890;9.278;2023-05-29T01:09:25;98743.31;;;16.54;52.16
9969;BME280;5025;48.890;9.278;2023-05-29T01:17:40;98747.94;;;16.48;52.07
9969;BME280;5025;48.890;9.278;2023-05-29T01:20:33;98743.56;;;16.47;52.44
9969;BME280;5025;48.890;9.278;2023-05-29T01:23:27;98740.56;;;16.49;52.57
9969;BME280;5025;48.890;9.278;2023-05-29T01:26:22;98750.94;;;16.47;52.39
9969;BME280;5025;48.890;9.278;2023-05-29T01:28:52;98744.66;;;16.46;52.19
9969;BME280;5025;48.890;9.278;2023-05-29T01:31:25;98743.56;;;16.47;51.72
9969;BME280;5025;48.890;9.278;2023-05-29T01:33:55;98740.03;;;16.47;51.68
9969;BME280;5025;48.890;9.278;2023-05-29T01:36:21;98744.91;;;16.45;51.46
9969;BME280;5025;48.890;9.278;2023-05-29T01:38:48;98744.91;;;16.40;51.19
9969;BME280;5025;48.890;9.278;2023-05-29T01:41:14;98749.53;;;16.39;51.22
9969;BME280;5025;48.890;9.278;2023-05-29T01:43:42;98748.44;;;16.35;51.51
9969;BME280;5025;48.890;9.278;2023-05-29T01:46:07;98749.25;;;16.36;51.40
9969;BME280;5025;48.890;9.278;2023-05-29T01:48:33;98743.53;;;16.32;51.19
9969;BME280;5025;48.890;9.278;2023-05-29T01:50:58;98751.97;;;16.30;51.22
9969;BME280;5025;48.890;9.278;2023-05-29T01:53:24;98758.50;;;16.29;51.20
9969;BME280;5025;48.890;9.278;2023-05-29T01:55:50;98753.56;;;16.26;51.05
9969;BME280;5025;48.890;9.278;2023-05-29T01:58:17;98756.03;;;16.23;51.00
9969;BME280;5025;48.890;9.278;2023-05-29T02:00:44;98750.28;;;16.19;51.04
9969;BME280;5025;48.890;9.278;2023-05-29T02:03:10;98751.38;;;16.18;50.95
9969;BME280;5025;48.890;9.278;2023-05-29T02:05:35;98749.19;;;16.15;50.80
9969;BME280;5025;48.890;9.278;2023-05-29T02:08:00;98750.25;;;16.14;50.83
9969;BME280;5025;48.890;9.278;2023-05-29T02:10:26;98746.19;;;16.11;51.01
9969;BME280;5025;48.890;9.278;2023-05-29T02:12:51;98757.59;;;16.08;51.15
9969;BME280;5025;48.890;9.278;2023-05-29T02:15:16;98754.03;;;16.03;51.07
9969;BME280;5025;48.890;9.278;2023-05-29T02:17:41;98752.63;;;16.00;51.12
9969;BME280;5025;48.890;9.278;2023-05-29T02:20:07;98752.09;;;15.98;51.34
9969;BME280;5025;48.890;9.278;2023-05-29T02:22:32;98752.91;;;15.99;51.18
9969;BME280;5025;48.890;9.278;2023-05-29T02:24:58;98753.16;;;15.97;51.50
9969;BME280;5025;48.890;9.278;2023-05-29T02:27:23;98749.63;;;15.97;51.47
9969;BME280;5025;48.890;9.278;2023-05-29T02:29:48;98749.34;;;15.93;51.82
9969;BME280;5025;48.890;9.278;2023-05-29T02:32:13;98745.25;;;15.90;52.04
9969;BME280;5025;48.890;9.278;2023-05-29T02:34:39;98746.31;;;15.84;52.23
9969;BME280;5025;48.890;9.278;2023-05-29T02:37:04;98748.19;;;15.79;52.33
9969;BME280;5025;48.890;9.278;2023-05-29T02:39:29;98750.31;;;15.76;52.45
9969;BME280;5025;48.890;9.278;2023-05-29T02:41:55;98744.59;;;15.73;52.57
9969;BME280;5025;48.890;9.278;2023-05-29T02:44:20;98744.00;;;15.66;52.87
9969;BME280;5025;48.890;9.278;2023-05-29T02:46:45;98740.97;;;15.57;53.01
9969;BME280;5025;48.890;9.278;2023-05-29T02:49:11;98752.06;;;15.50;53.52
9969;BME280;5025;48.890;9.278;2023-05-29T02:51:36;98749.31;;;15.45;53.57
9969;BME280;5025;48.890;9.278;2023-05-29T02:54:02;98747.09;;;15.37;53.92
9969;BME280;5025;48.890;9.278;2023-05-29T02:56:27;98744.81;;;15.29;54.34
9969;BME280;5025;48.890;9.278;2023-05-29T02:58:53;98745.34;;;15.26;54.99
9969;BME280;5025;48.890;9.278;2023-05-29T03:01:19;98749.16;;;15.24;55.26
9969;BME280;5025;48.890;9.278;2023-05-29T03:03:44;98743.72;;;15.24;55.45
9969;BME280;5025;48.890;9.278;2023-05-29T03:06:09;98742.09;;;15.23;55.69
9969;BME280;5025;48.890;9.278;2023-05-29T03:08:35;98748.59;;;15.22;55.70
9969;BME280;5025;48.890;9.278;2023-05-29T03:11:05;98754.81;;;15.18;56.02
9969;BME280;5025;48.890;9.278;2023-05-29T03:13:31;98751.53;;;15.16;55.96
9969;BME280;5025;48.890;9.278;2023-05-29T03:15:59;98747.44;;;15.13;56.23
9969;BME280;5025;48.890;9.278;2023-05-29T03:18:24;98745.75;;;15.07;56.50
9969;BME280;5025;48.890;9.278;2023-05-29T03:20:50;98742.47;;;15.05;56.32
9969;BME280;5025;48.890;9.278;2023-05-29T03:23:15;98749.31;;;15.08;56.65
9969;BME280;5025;48.890;9.278;2023-05-29T03:25:40;98750.09;;;15.03;56.80
9969;BME280;5025;48.890;9.278;2023-05-29T03:28:05;98754.94;;;15.01;56.88
9969;BME280;5025;48.890;9.278;2023-05-29T03:30:30;98751.41;;;15.00;56.92
9969;BME280;5025;48.890;9.278;2023-05-29T03:32:56;98752.47;;;14.99;57.09
9969;BME280;5025;48.890;9.278;2023-05-29T03:35:21;98748.13;;;14.98;57.30
9969;BME280;5025;48.890;9.278;2023-05-29T03:37:46;98742.97;;;14.97;57.37
9969;BME280;5025;48.890;9.278;2023-05-29T03:40:12;98743.47;;;14.94;57.45
9969;BME280;5025;48.890;9.278;2023-05-29T03:42:37;98748.59;;;14.90;57.45
9969;BME280;5025;48.890;9.278;2023-05-29T03:45:03;98746.38;;;14.87;57.54
9969;BME280;5025;48.890;9.278;2023-05-29T03:47:28;98752.06;;;14.85;57.42
9969;BME280;5025;48.890;9.278;2023-05-29T03:49:53;98759.94;;;14.82;57.65
9969;BME280;5025;48.890;9.278;2023-05-29T03:52:19;98760.72;;;14.77;57.93
9969;BME280;5025;48.890;9.278;2023-05-29T03:54:44;98764.25;;;14.78;57.82
9969;BME280;5025;48.890;9.278;2023-05-29T03:57:10;98768.59;;;14.79;58.00
9969;BME280;5025;48.890;9.278;2023-05-29T03:59:35;98765.34;;;14.77;58.06
9969;BME280;5025;48.890;9.278;2023-05-29T04:02:00;98767.72;;;14.73;58.05
9969;BME280;5025;48.890;9.278;2023-05-29T04:04:26;98775.59;;;14.69;58.17
9969;BME280;5025;48.890;9.278;2023-05-29T04:06:52;98774.44;;;14.65;58.20
9969;BME280;5025;48.890;9.278;2023-05-29T04:09:17;98781.72;;;14.60;58.37
9969;BME280;5025;48.890;9.278;2023-05-29T04:11:42;98776.53;;;14.58;58.54
9969;BME280;5025;48.890;9.278;2023-05-29T04:14:09;98778.09;;;14.54;58.56
9969;BME280;5025;48.890;9.278;2023-05-29T04:16:34;98790.00;;;14.48;58.63
9969;BME280;5025;48.890;9.278;2023-05-29T04:19:00;98789.69;;;14.44;58.87
9969;BME280;5025;48.890;9.278;2023-05-29T04:21:25;98792.34;;;14.39;58.94
9969;BME280;5025;48.890;9.278;2023-05-29T04:23:51;98793.41;;;14.38;59.25
9969;BME280;5025;48.890;9.278;2023-05-29T04:26:17;98798.84;;;14.38;59.12
9969;BME280;5025;48.890;9.278;2023-05-29T04:28:42;98808.41;;;14.41;59.44
9969;BME280;5025;48.890;9.278;2023-05-29T04:31:08;98808.66;;;14.39;59.53
9969;BME280;5025;48.890;9.278;2023-05-29T04:33:39;98811.38;;;14.39;59.72
9969;BME280;5025;48.890;9.278;2023-05-29T04:36:05;98812.19;;;14.40;59.61
9969;BME280;5025;48.890;9.278;2023-05-29T04:38:30;98811.38;;;14.39;59.71
9969;BME280;5025;48.890;9.278;2023-05-29T04:40:56;98814.09;;;14.39;59.92
9969;BME280;5025;48.890;9.278;2023-05-29T04:43:24;98815.72;;;14.40;59.84
9969;BME280;5025;48.890;9.278;2023-05-29T04:45:52;98807.81;;;14.39;60.06
9969;BME280;5025;48.890;9.278;2023-05-29T04:48:17;98814.66;;;14.41;60.00
9969;BME280;5025;48.890;9.278;2023-05-29T04:50:43;98815.78;;;14.45;60.38
9969;BME280;5025;48.890;9.278;2023-05-29T04:53:09;98816.34;;;14.47;60.44
9969;BME280;5025;48.890;9.278;2023-05-29T04:55:35;98818.75;;;14.44;60.58
9969;BME280;5025;48.890;9.278;2023-05-29T04:58:01;98819.69;;;14.32;60.81
9969;BME280;5025;48.890;9.278;2023-05-29T05:00:26;98823.50;;;14.31;61.07
9969;BME280;5025;48.890;9.278;2023-05-29T05:02:51;98828.09;;;14.31;61.26
9969;BME280;5025;48.890;9.278;2023-05-29T05:05:17;98827.59;;;14.34;61.14
9969;BME280;5025;48.890;9.278;2023-05-29T05:07:42;98830.91;;;14.36;61.58
9969;BME280;5025;48.890;9.278;2023-05-29T05:10:08;98842.06;;;14.40;61.47
9969;BME280;5025;48.890;9.278;2023-05-29T05:12:33;98831.50;;;14.43;61.61
9969;BME280;5025;48.890;9.278;2023-05-29T05:14:59;98836.94;;;14.43;61.77
9969;BME280;5025;48.890;9.278;2023-05-29T05:17:24;98844.03;;;14.44;61.81
9969;BME280;5025;48.890;9.278;2023-05-29T05:19:49;98841.88;;;14.46;61.65
9969;BME280;5025;48.890;9.278;2023-05-29T05:22:15;98837.84;;;14.49;61.82
9969;BME280;5025;48.890;9.278;2023-05-29T05:24:41;98834.56;;;14.47;61.82
9969;BME280;5025;48.890;9.278;2023-05-29T05:27:06;98844.59;;;14.46;61.95
9969;BME280;5025;48.890;9.278;2023-05-29T05:29:31;98845.19;;;14.48;62.21
9969;BME280;5025;48.890;9.278;2023-05-29T05:31:56;98846.81;;;14.49;62.04
9969;BME280;5025;48.890;9.278;2023-05-29T05:34:22;98839.47;;;14.50;62.24
9969;BME280;5025;48.890;9.278;2023-05-29T05:36:47;98834.88;;;14.50;62.29
9969;BME280;5025;48.890;9.278;2023-05-29T05:39:12;98841.66;;;14.53;62.28
9969;BME280;5025;48.890;9.278;2023-05-29T05:41:37;98849.56;;;14.55;62.62
9969;BME280;5025;48.890;9.278;2023-05-29T05:44:03;98852.38;;;14.60;62.53
9969;BME280;5025;48.890;9.278;2023-05-29T05:46:28;98849.91;;;14.58;62.71
9969;BME280;5025;48.890;9.278;2023-05-29T05:48:54;98848.34;;;14.62;62.81
9969;BME280;5025;48.890;9.278;2023-05-29T05:51:22;98858.44;;;14.67;62.74
9969;BME280;5025;48.890;9.278;2023-05-29T05:53:48;98861.53;;;14.76;62.66
9969;BME280;5025;48.890;9.278;2023-05-29T05:56:13;98869.50;;;14.82;62.68
9969;BME280;5025;48.890;9.278;2023-05-29T05:58:38;98866.59;;;14.89;62.50
9969;BME280;5025;48.890;9.278;2023-05-29T06:01:03;98867.72;;;14.93;62.06
9969;BME280;5025;48.890;9.278;2023-05-29T06:03:29;98872.97;;;15.00;62.40
9969;BME280;5025;48.890;9.278;2023-05-29T06:05:54;98871.44;;;15.09;62.30
9969;BME280;5025;48.890;9.278;2023-05-29T06:08:20;98870.66;;;15.14;62.41
9969;BME280;5025;48.890;9.278;2023-05-29T06:10:45;98870.97;;;15.17;62.56
9969;BME280;5025;48.890;9.278;2023-05-29T06:13:11;98870.19;;;15.22;62.19
9969;BME280;5025;48.890;9.278;2023-05-29T06:15:37;98875.41;;;15.29;62.48
9969;BME280;5025;48.890;9.278;2023-05-29T06:18:02;98872.97;;;15.27;62.26
9969;BME280;5025;48.890;9.278;2023-05-29T06:20:28;98877.63;;;15.32;62.49
9969;BME280;5025;48.890;9.278;2023-05-29T06:22:53;98886.31;;;15.29;62.62
9969;BME280;5025;48.890;9.278;2023-05-29T06:25:19;98876.44;;;15.22;62.77
9969;BME280;5025;48.890;9.278;2023-05-29T06:27:44;98883.53;;;15.23;62.81
9969;BME280;5025;48.890;9.278;2023-05-29T06:30:11;98885.50;;;15.28;62.79
9969;BME280;5025;48.890;9.278;2023-05-29T06:32:36;98889.53;;;15.26;62.95
9969;BME280;5025;48.890;9.278;2023-05-29T06:35:02;98890.94;;;15.28;63.20
9969;BME280;5025;48.890;9.278;2023-05-29T06:37:27;98898.06;;;15.34;63.02
9969;BME280;5025;48.890;9.278;2023-05-29T06:39:52;98894.06;;;15.42;62.88
9969;BME280;5025;48.890;9.278;2023-05-29T06:42:17;98908.03;;;15.51;62.64
9969;BME280;5025;48.890;9.278;2023-05-29T06:44:42;98905.13;;;15.63;62.38
9969;BME280;5025;48.890;9.278;2023-05-29T06:47:08;98899.78;;;15.73;62.27
9969;BME280;5025;48.890;9.278;2023-05-29T06:49:33;98902.59;;;15.83;61.64
9969;BME280;5025;48.890;9.278;2023-05-29T06:51:58;98907.25;;;15.88;61.80
9969;BME280;5025;48.890;9.278;2023-05-29T06:54:24;98905.16;;;15.95;61.39
9969;BME280;5025;48.890;9.278;2023-05-29T06:56:50;98906.56;;;16.03;61.35
9969;BME280;5025;48.890;9.278;2023-05-29T06:59:15;98908.25;;;16.09;60.94
9969;BME280;5025;48.890;9.278;2023-05-29T07:01:41;98900.09;;;16.14;60.54
9969;BME280;5025;48.890;9.278;2023-05-29T07:04:06;98909.41;;;16.18;60.26
9969;BME280;5025;48.890;9.278;2023-05-29T07:06:32;98917.31;;;16.20;60.11
9969;BME280;5025;48.890;9.278;2023-05-29T07:08:58;98916.25;;;16.26;59.97
9969;BME280;5025;48.890;9.278;2023-05-29T07:11:23;98909.22;;;16.35;60.07
9969;BME280;5025;48.890;9.278;2023-05-29T07:13:49;98914.75;;;16.45;59.83
9969;BME280;5025;48.890;9.278;2023-05-29T07:16:14;98904.13;;;16.54;59.84
9969;BME280;5025;48.890;9.278;2023-05-29T07:18:39;98902.00;;;16.61;59.68
9969;BME280;5025;48.890;9.278;2023-05-29T07:21:04;98913.50;;;16.69;59.54
9969;BME280;5025;48.890;9.278;2023-05-29T07:23:31;98907.50;;;16.72;59.29
9969;BME280;5025;48.890;9.278;2023-05-29T07:25:56;98908.06;;;16.79;59.28
9969;BME280;5025;48.890;9.278;2023-05-29T07:28:21;98908.69;;;16.86;59.15
9969;BME280;5025;48.890;9.278;2023-05-29T07:30:46;98917.19;;;16.95;59.14
9969;BME280;5025;48.890;9.278;2023-05-29T07:33:12;98918.28;;;16.99;58.87
9969;BME280;5025;48.890;9.278;2023-05-29T07:35:38;98916.41;;;17.05;58.57
9969;BME280;5025;48.890;9.278;2023-05-29T07:38:03;98911.78;;;17.10;58.78
9969;BME280;5025;48.890;9.278;2023-05-29T07:40:28;98913.41;;;17.16;58.67
9969;BME280;5025;48.890;9.278;2023-05-29T07:42:54;98911.53;;;17.22;58.57
9969;BME280;5025;48.890;9.278;2023-05-29T07:45:19;98910.97;;;17.30;58.36
9969;BME280;5025;48.890;9.278;2023-05-29T07:47:44;98913.19;;;17.38;58.36
9969;BME280;5025;48.890;9.278;2023-05-29T07:50:10;98907.19;;;17.47;58.11
9969;BME280;5025;48.890;9.278;2023-05-29T07:52:35;98905.56;;;17.56;58.02
9969;BME280;5025;48.890;9.278;2023-05-29T07:55:01;98904.75;;;17.66;57.71
9969;BME280;5025;48.890;9.278;2023-05-29T07:57:27;98906.13;;;17.73;57.34
9969;BME280;5025;48.890;9.278;2023-05-29T07:59:52;98905.03;;;17.80;57.23
9969;BME280;5025;48.890;9.278;2023-05-29T08:02:18;98901.75;;;17.88;57.08
9969;BME280;5025;48.890;9.278;2023-05-29T08:04:43;98903.97;;;17.96;56.48
9969;BME280;5025;48.890;9.278;2023-05-29T08:07:08;98905.31;;;18.04;56.42
9969;BME280;5025;48.890;9.278;2023-05-29T08:09:35;98907.22;;;18.14;55.75
9969;BME280;5025;48.890;9.278;2023-05-29T08:12:00;98906.94;;;18.25;55.69
9969;BME280;5025;48.890;9.278;2023-05-29T08:14:26;98906.94;;;18.36;55.40
9969;BME280;5025;48.890;9.278;2023-05-29T08:16:51;98908.28;;;18.43;55.30
9969;BME280;5025;48.890;9.278;2023-05-29T08:19:16;98912.59;;;18.50;55.08
9969;BME280;5025;48.890;9.278;2023-05-29T08:21:42;98905.75;;;18.57;54.70
9969;BME280;5025;48.890;9.278;2023-05-29T08:24:07;98903.25;;;18.66;54.55
9969;BME280;5025;48.890;9.278;2023-05-29T08:26:34;98905.69;;;18.73;54.36
9969;BME280;5025;48.890;9.278;2023-05-29T08:29:00;98914.16;;;18.81;54.25
9969;BME280;5025;48.890;9.278;2023-05-29T08:31:25;98913.31;;;18.91;53.85
9969;BME280;5025;48.890;9.278;2023-05-29T08:33:52;98901.78;;;18.99;53.31
9969;BME280;5025;48.890;9.278;2023-05-29T08:36:17;98914.59;;;19.09;53.23
9969;BME280;5025;48.890;9.278;2023-05-29T08:38:43;98910.47;;;19.17;53.09
9969;BME280;5025;48.890;9.278;2023-05-29T08:41:11;98904.94;;;19.27;53.00
9969;BME280;5025;48.890;9.278;2023-05-29T08:43:41;98906.25;;;19.35;52.48
9969;BME280;5025;48.890;9.278;2023-05-29T08:46:06;98898.22;;;19.44;51.92
9969;BME280;5025;48.890;9.278;2023-05-29T08:48:32;98902.84;;;19.53;50.82
9969;BME280;5025;48.890;9.278;2023-05-29T08:51:02;98897.84;;;19.61;50.83
9969;BME280;5025;48.890;9.278;2023-05-29T08:53:27;98900.50;;;19.71;50.33
9969;BME280;5025;48.890;9.278;2023-05-29T08:55:53;98897.25;;;19.69;49.60
9969;BME280;5025;48.890;9.278;2023-05-29T08:58:19;98891.69;;;19.79;49.87
9969;BME280;5025;48.890;9.278;2023-05-29T09:00:49;98899.28;;;19.93;49.39
9969;BME280;5025;48.890;9.278;2023-05-29T09:03:15;98893.38;;;20.04;49.36
9969;BME280;5025;48.890;9.278;2023-05-29T09:05:40;98888.34;;;20.17;49.13
9969;BME280;5025;48.890;9.278;2023-05-29T09:08:09;98891.28;;;20.26;48.87
9969;BME280;5025;48.890;9.278;2023-05-29T09:10:43;98897.47;;;20.36;48.68
9969;BME280;5025;48.890;9.278;2023-05-29T09:13:09;98896.53;;;20.46;48.58
9969;BME280;5025;48.890;9.278;2023-05-29T09:15:36;98883.75;;;20.60;48.37
9969;BME280;5025;48.890;9.278;2023-05-29T09:18:04;98888.84;;;20.72;48.11
9969;BME280;5025;48.890;9.278;2023-05-29T09:20:29;98890.38;;;20.84;48.06
9969;BME280;5025;48.890;9.278;2023-05-29T09:23:01;98880.06;;;20.94;47.94
9969;BME280;5025;48.890;9.278;2023-05-29T09:25:28;98892.16;;;21.12;47.75
9969;BME280;5025;48.890;9.278;2023-05-29T09:27:58;98888.41;;;21.27;47.49
9969;BME280;5025;48.890;9.278;2023-05-29T09:33:00;98894.47;;;21.62;46.21
9969;BME280;5025;48.890;9.278;2023-05-29T09:35:26;98889.94;;;21.72;45.62
9969;BME280;5025;48.890;9.278;2023-05-29T09:37:52;98894.66;;;21.85;45.15
9969;BME280;5025;48.890;9.278;2023-05-29T09:40:17;98896.66;;;21.98;44.62
9969;BME280;5025;48.890;9.278;2023-05-29T09:42:43;98895.44;;;22.05;44.14
9969;BME280;5025;48.890;9.278;2023-05-29T09:45:08;98894.13;;;22.16;43.79
9969;BME280;5025;48.890;9.278;2023-05-29T09:47:34;98899.47;;;22.26;43.42
9969;BME280;5025;48.890;9.278;2023-05-29T09:50:00;98895.44;;;22.37;42.73
9969;BME280;5025;48.890;9.278;2023-05-29T09:52:29;98900.41;;;22.49;42.54
9969;BME280;5025;48.890;9.278;2023-05-29T09:54:55;98906.53;;;22.60;41.93
9969;BME280;5025;48.890;9.278;2023-05-29T09:57:22;98892.88;;;22.69;41.96
9969;BME280;5025;48.890;9.278;2023-05-29T09:59:49;98896.53;;;22.78;41.43
9969;BME280;5025;48.890;9.278;2023-05-29T10:02:17;98892.25;;;22.86;41.33
9969;BME280;5025;48.890;9.278;2023-05-29T10:04:42;98892.13;;;22.91;41.02
9969;BME280;5025;48.890;9.278;2023-05-29T10:07:29;98881.22;;;23.00;40.67
9969;BME280;5025;48.890;9.278;2023-05-29T10:10:03;98888.75;;;23.08;40.59
9969;BME280;5025;48.890;9.278;2023-05-29T10:12:31;98883.97;;;23.14;40.42
9969;BME280;5025;48.890;9.278;2023-05-29T10:14:59;98882.44;;;23.21;40.12
9969;BME280;5025;48.890;9.278;2023-05-29T10:17:32;98877.94;;;23.25;40.02
9969;BME280;5025;48.890;9.278;2023-05-29T10:20:01;98886.09;;;23.31;39.91
9969;BME280;5025;48.890;9.278;2023-05-29T10:22:28;98879.50;;;23.40;39.64
9969;BME280;5025;48.890;9.278;2023-05-29T10:24:56;98886.03;;;23.44;39.79
9969;BME280;5025;48.890;9.278;2023-05-29T10:27:21;98880.28;;;23.55;39.46
9969;BME280;5025;48.890;9.278;2023-05-29T10:29:58;98874.03;;;23.63;39.26
9969;BME280;5025;48.890;9.278;2023-05-29T10:32:52;98877.97;;;23.71;38.57
9969;BME280;5025;48.890;9.278;2023-05-29T10:35:31;98880.75;;;23.79;38.49
9969;BME280;5025;48.890;9.278;2023-05-29T10:38:12;98881.03;;;23.92;37.82
9969;BME280;5025;48.890;9.278;2023-05-29T10:40:38;98877.53;;;24.00;37.42
9969;BME280;5025;48.890;9.278;2023-05-29T10:43:03;98877.56;;;24.09;37.37
9969;BME280;5025;48.890;9.278;2023-05-29T10:50:36;98869.56;;;24.30;36.88
9969;BME280;5025;48.890;9.278;2023-05-29T10:53:01;98871.38;;;24.34;36.69
9969;BME280;5025;48.890;9.278;2023-05-29T10:55:34;98865.06;;;24.43;36.01
9969;BME280;5025;48.890;9.278;2023-05-29T10:58:07;98872.59;;;24.51;35.80
9969;BME280;5025;48.890;9.278;2023-05-29T11:00:33;98868.03;;;24.55;35.64
9969;BME280;5025;48.890;9.278;2023-05-29T11:03:07;98873.13;;;24.62;35.24
9969;BME280;5025;48.890;9.278;2023-05-29T11:05:32;98863.56;;;24.68;34.94
9969;BME280;5025;48.890;9.278;2023-05-29T11:07:59;98857.56;;;24.75;34.94
9969;BME280;5025;48.890;9.278;2023-05-29T11:10:55;98841.66;;;24.80;34.76
9969;BME280;5025;48.890;9.278;2023-05-29T11:18:47;98861.50;;;25.00;34.61
9969;BME280;5025;48.890;9.278;2023-05-29T11:24:06;98859.25;;;25.11;33.68
9969;BME280;5025;48.890;9.278;2023-05-29T11:26:32;98864.94;;;25.05;33.12
9969;BME280;5025;48.890;9.278;2023-05-29T11:28:59;98862.97;;;25.06;32.76
9969;BME280;5025;48.890;9.278;2023-05-29T11:31:27;98863.31;;;25.13;32.37
9969;BME280;5025;48.890;9.278;2023-05-29T11:33:54;98865.28;;;25.21;32.57
9969;BME280;5025;48.890;9.278;2023-05-29T11:36:21;98863.84;;;25.33;32.41
9969;BME280;5025;48.890;9.278;2023-05-29T11:38:47;98857.00;;;25.39;32.18
9969;BME280;5025;48.890;9.278;2023-05-29T11:41:13;98862.88;;;25.46;32.43
9969;BME280;5025;48.890;9.278;2023-05-29T11:43:38;98862.69;;;25.51;32.12
9969;BME280;5025;48.890;9.278;2023-05-29T11:46:17;98869.19;;;25.55;31.56
9969;BME280;5025;48.890;9.278;2023-05-29T11:48:47;98860.41;;;25.62;31.57
9969;BME280;5025;48.890;9.278;2023-05-29T11:51:12;98856.84;;;25.70;31.54
9969;BME280;5025;48.890;9.278;2023-05-29T11:53:42;98867.88;;;25.79;31.46
9969;BME280;5025;48.890;9.278;2023-05-29T11:56:09;98854.03;;;25.88;31.37
9969;BME280;5025;48.890;9.278;2023-05-29T11:58:36;98854.69;;;25.93;31.09
9969;BME280;5025;48.890;9.278;2023-05-29T12:01:02;98850.13;;;25.98;30.77
9969;BME280;5025;48.890;9.278;2023-05-29T12:03:28;98860.19;;;26.02;30.65
9969;BME280;5025;48.890;9.278;2023-05-29T12:05:53;98856.94;;;26.09;30.30
9969;BME280;5025;48.890;9.278;2023-05-29T12:08:24;98855.63;;;26.15;30.28
9969;BME280;5025;48.890;9.278;2023-05-29T12:10:51;98852.66;;;26.20;30.20
9969;BME280;5025;48.890;9.278;2023-05-29T12:13:20;98856.41;;;26.24;30.02
9969;BME280;5025;48.890;9.278;2023-05-29T12:15:47;98855.88;;;26.31;30.25
9969;BME280;5025;48.890;9.278;2023-05-29T12:18:14;98853.72;;;26.37;29.77
9969;BME280;5025;48.890;9.278;2023-05-29T12:20:39;98846.72;;;26.39;29.57
9969;BME280;5025;48.890;9.278;2023-05-29T12:23:05;98849.63;;;26.43;29.48
9969;BME280;5025;48.890;9.278;2023-05-29T12:25:30;98848.78;;;26.51;29.46
9969;BME280;5025;48.890;9.278;2023-05-29T12:27:56;98847.25;;;26.62;29.59
9969;BME280;5025;48.890;9.278;2023-05-29T12:30:23;98854.59;;;26.67;29.09
9969;BME280;5025;48.890;9.278;2023-05-29T12:32:51;98860.44;;;26.74;28.95
9969;BME280;5025;48.890;9.278;2023-05-29T12:35:25;98854.69;;;26.79;29.16
9969;BME280;5025;48.890;9.278;2023-05-29T12:40:29;98848.44;;;26.91;28.57
9969;BME280;5025;48.890;9.278;2023-05-29T12:42:58;98856.06;;;26.94;28.68
9969;BME280;5025;48.890;9.278;2023-05-29T12:45:28;98847.75;;;26.94;28.17
9969;BME280;5025;48.890;9.278;2023-05-29T12:48:04;98854.38;;;27.02;28.03
9969;BME280;5025;48.890;9.278;2023-05-29T12:50:32;98850.59;;;27.07;27.71
9969;BME280;5025;48.890;9.278;2023-05-29T12:55:31;98843.03;;;27.16;27.50
9969;BME280;5025;48.890;9.278;2023-05-29T12:58:02;98847.69;;;27.24;27.48
9969;BME280;5025;48.890;9.278;2023-05-29T13:00:27;98851.41;;;27.28;27.13
9969;BME280;5025;48.890;9.278;2023-05-29T13:02:53;98848.47;;;27.33;27.36
9969;BME280;5025;48.890;9.278;2023-05-29T13:05:18;98847.09;;;27.40;27.52
9969;BME280;5025;48.890;9.278;2023-05-29T13:07:46;98846.88;;;27.45;27.19
9969;BME280;5025;48.890;9.278;2023-05-29T13:10:11;98848.44;;;27.54;26.78
9969;BME280;5025;48.890;9.278;2023-05-29T13:12:37;98854.13;;;27.58;27.07
9969;BME280;5025;48.890;9.278;2023-05-29T13:15:02;98842.13;;;27.66;26.86
9969;BME280;5025;48.890;9.278;2023-05-29T13:17:28;98845.16;;;27.73;26.87
9969;BME280;5025;48.890;9.278;2023-05-29T13:19:53;98839.84;;;27.81;26.13
9969;BME280;5025;48.890;9.278;2023-05-29T13:22:18;98840.78;;;27.85;26.50
9969;BME280;5025;48.890;9.278;2023-05-29T13:24:44;98836.63;;;27.91;26.51
9969;BME280;5025;48.890;9.278;2023-05-29T13:27:10;98831.38;;;27.98;26.48
9969;BME280;5025;48.890;9.278;2023-05-29T13:29:38;98828.81;;;28.05;26.43
9969;BME280;5025;48.890;9.278;2023-05-29T13:32:04;98834.97;;;28.11;26.57
9969;BME280;5025;48.890;9.278;2023-05-29T13:34:29;98830.47;;;28.19;26.03
9969;BME280;5025;48.890;9.278;2023-05-29T13:36:56;98831.88;;;28.25;26.07
9969;BME280;5025;48.890;9.278;2023-05-29T13:39:21;98824.59;;;28.33;25.90
9969;BME280;5025;48.890;9.278;2023-05-29T13:41:47;98829.34;;;28.44;26.23
9969;BME280;5025;48.890;9.278;2023-05-29T13:44:12;98827.13;;;28.50;26.16
9969;BME280;5025;48.890;9.278;2023-05-29T13:46:37;98826.44;;;28.53;25.69